createdAt,value
2022-10-01T00:00:17.892Z,1.25
2022-10-01T00:01:20.088Z,1.30
2022-10-01T00:02:23.028Z,1.20
2022-10-01T00:03:26.614Z,1.30
2022-10-01T00:04:29.559Z,1.20
2022-10-01T00:05:31.484Z,1.20
2022-10-01T00:06:34.370Z,1.00
2022-10-01T00:07:40.519Z,1.10
2022-10-01T00:08:45.639Z,1.20
2022-10-01T00:09:47.489Z,1.23
2022-10-01T00:10:51.556Z,1.00
2022-10-01T00:11:53.502Z,1.00
2022-10-01T00:12:56.446Z,1.00
2022-10-01T00:14:01.760Z,1.00
2022-10-01T00:15:12.883Z,1.10
2022-10-01T00:16:18.009Z,0.90
2022-10-01T00:17:20.912Z,1.02
2022-10-01T00:18:23.145Z,0.90
2022-10-01T00:19:26.320Z,1.00
2022-10-01T00:20:28.207Z,1.00
2022-10-01T00:21:33.299Z,1.10
2022-10-01T00:22:36.315Z,1.00
2022-10-01T00:23:39.992Z,1.00
2022-10-01T00:24:41.852Z,1.10
2022-10-01T00:25:44.749Z,1.10
2022-10-01T00:26:47.668Z,1.00
2022-10-01T00:27:50.607Z,1.20
2022-10-01T00:28:55.499Z,1.00
2022-10-01T00:29:59.737Z,1.20
2022-10-01T00:31:01.761Z,1.10
2022-10-01T00:32:04.748Z,1.10
2022-10-01T00:33:06.610Z,1.10
2022-10-01T00:34:12.476Z,1.20
2022-10-01T00:35:14.519Z,1.10
2022-10-01T00:36:17.420Z,1.02
2022-10-01T00:37:20.119Z,1.17
2022-10-01T00:38:23.119Z,1.10
2022-10-01T00:39:24.984Z,1.00
2022-10-01T00:40:27.843Z,1.00
2022-10-01T00:41:32.341Z,1.00
2022-10-01T00:42:35.459Z,1.00
2022-10-01T00:43:42.510Z,0.88
2022-10-01T00:44:45.612Z,0.90
2022-10-01T00:45:49.530Z,0.90
2022-10-01T00:46:53.866Z,0.90
2022-10-01T00:47:59.392Z,0.90
2022-10-01T00:49:07.639Z,0.90
2022-10-01T00:50:16.375Z,0.90
2022-10-01T00:51:20.773Z,0.80
2022-10-01T00:52:26.587Z,0.80
2022-10-01T00:53:29.784Z,0.85
2022-10-01T00:54:35.102Z,1.00
2022-10-01T00:55:42.131Z,0.90
2022-10-01T00:56:45.044Z,0.90
2022-10-01T00:57:48.318Z,1.00
2022-10-01T00:58:54.148Z,1.02
2022-10-01T01:00:02.081Z,0.90
2022-10-01T01:01:05.848Z,0.85
2022-10-01T01:02:08.842Z,0.90
2022-10-01T01:03:12.300Z,0.80
2022-10-01T01:04:17.259Z,0.80
2022-10-01T01:05:19.739Z,0.90
2022-10-01T01:06:22.887Z,1.00
2022-10-01T01:07:24.907Z,1.00
2022-10-01T01:08:29.202Z,1.00
2022-10-01T01:09:33.764Z,0.90
2022-10-01T01:10:49.342Z,0.80
2022-10-01T01:11:57.830Z,0.75
2022-10-01T01:13:12.361Z,0.80
2022-10-01T01:14:22.933Z,0.77
2022-10-01T01:15:32.509Z,0.80
2022-10-01T01:16:44.998Z,0.85
2022-10-01T01:17:55.547Z,0.98
2022-10-01T01:19:02.639Z,0.90
2022-10-01T01:20:31.094Z,0.82
2022-10-01T01:21:36.012Z,0.82
2022-10-01T01:22:46.471Z,0.75
2022-10-01T01:24:19.256Z,0.90
2022-10-01T01:25:29.071Z,0.75
2022-10-01T01:26:42.247Z,0.80
2022-10-01T01:27:50.687Z,0.88
2022-10-01T01:29:01.191Z,0.80
2022-10-01T01:30:08.373Z,0.90
2022-10-01T01:31:14.904Z,0.80
2022-10-01T01:32:24.071Z,0.80
2022-10-01T01:33:27.948Z,0.80
2022-10-01T01:34:34.799Z,0.80
2022-10-01T01:35:44.075Z,0.80
2022-10-01T01:36:54.177Z,0.80
2022-10-01T01:38:02.111Z,0.80
2022-10-01T01:39:10.514Z,0.88
2022-10-01T01:40:16.443Z,0.80
2022-10-01T01:41:22.105Z,0.80
2022-10-01T01:42:37.186Z,0.85
2022-10-01T01:43:44.509Z,0.80
2022-10-01T01:44:51.027Z,0.80
2022-10-01T01:45:55.824Z,0.70
2022-10-01T01:47:01.685Z,0.80
2022-10-01T01:48:05.891Z,0.80
2022-10-01T01:49:08.763Z,0.80
2022-10-01T01:50:15.377Z,0.90
2022-10-01T01:51:23.850Z,0.90
2022-10-01T01:52:27.009Z,0.90
2022-10-01T01:53:32.151Z,0.98
2022-10-01T01:54:36.479Z,0.80
2022-10-01T01:55:39.354Z,0.82
2022-10-01T01:56:42.272Z,0.80
2022-10-01T01:57:44.639Z,0.80
2022-10-01T01:58:48.387Z,0.82
2022-10-01T01:59:51.665Z,0.90
2022-10-01T02:00:54.880Z,0.80
2022-10-01T02:01:58.839Z,0.80
2022-10-01T02:03:02.125Z,1.00
2022-10-01T02:04:06.882Z,0.90
2022-10-01T02:05:14.269Z,0.88
2022-10-01T02:06:29.871Z,0.90
2022-10-01T02:07:59.976Z,1.00
2022-10-01T02:09:08.067Z,1.10
2022-10-01T02:10:26.412Z,1.00
2022-10-01T02:11:30.664Z,0.82
2022-10-01T02:12:50.008Z,1.00
2022-10-01T02:14:06.630Z,0.80
2022-10-01T02:15:21.523Z,0.90
2022-10-01T02:16:33.416Z,1.00
2022-10-01T02:17:44.026Z,1.00
2022-10-01T02:18:53.523Z,0.93
2022-10-01T02:19:59.798Z,1.00
2022-10-01T02:21:12.202Z,0.80
2022-10-01T02:22:21.093Z,1.00
2022-10-01T02:23:31.713Z,1.08
2022-10-01T02:24:40.636Z,0.90
2022-10-01T02:25:48.938Z,0.93
2022-10-01T02:26:55.675Z,0.85
2022-10-01T02:28:01.644Z,0.90
2022-10-01T02:29:08.974Z,0.90
2022-10-01T02:30:13.503Z,0.80
2022-10-01T02:31:19.316Z,0.80
2022-10-01T02:32:24.209Z,0.80
2022-10-01T02:33:30.732Z,0.80
2022-10-01T02:34:34.533Z,0.90
2022-10-01T02:35:39.255Z,0.82
2022-10-01T02:36:45.329Z,0.90
2022-10-01T02:37:52.023Z,0.80
2022-10-01T02:38:58.309Z,1.00
2022-10-01T02:40:02.951Z,0.90
2022-10-01T02:41:09.281Z,0.98
2022-10-01T02:42:14.856Z,0.90
2022-10-01T02:43:22.305Z,0.82
2022-10-01T02:44:30.244Z,0.90
2022-10-01T02:45:36.880Z,1.00
2022-10-01T02:46:45.325Z,1.00
2022-10-01T02:47:55.202Z,1.00
2022-10-01T02:48:58.141Z,0.90
2022-10-01T02:50:02.808Z,0.90
2022-10-01T02:51:22.564Z,0.90
2022-10-01T02:52:33.886Z,1.00
2022-10-01T02:53:42.495Z,0.90
2022-10-01T02:54:52.218Z,0.80
2022-10-01T02:55:56.808Z,0.90
2022-10-01T02:57:18.809Z,1.00
2022-10-01T02:58:22.858Z,0.93
2022-10-01T02:59:25.454Z,1.00
2022-10-01T03:00:29.499Z,0.80
2022-10-01T03:01:34.103Z,0.90
2022-10-01T03:02:38.103Z,0.80
2022-10-01T03:03:42.010Z,0.90
2022-10-01T03:04:45.214Z,0.90
2022-10-01T03:05:47.279Z,0.90
2022-10-01T03:06:50.499Z,0.80
2022-10-01T03:07:53.164Z,0.73
2022-10-01T03:08:57.647Z,0.80
2022-10-01T03:10:00.366Z,0.80
2022-10-01T03:11:03.671Z,0.90
2022-10-01T03:12:06.592Z,0.88
2022-10-01T03:13:09.560Z,0.80
2022-10-01T03:14:11.536Z,0.82
2022-10-01T03:15:15.860Z,0.80
2022-10-01T03:16:17.761Z,0.80
2022-10-01T03:17:22.222Z,0.80
2022-10-01T03:18:24.128Z,0.80
2022-10-01T03:19:27.134Z,0.80
2022-10-01T03:20:29.201Z,0.88
2022-10-01T03:21:32.527Z,0.90
2022-10-01T03:22:34.680Z,0.80
2022-10-01T03:23:37.572Z,0.80
2022-10-01T03:24:39.551Z,0.80
2022-10-01T03:25:42.548Z,0.80
2022-10-01T03:26:45.311Z,0.80
2022-10-01T03:27:48.330Z,0.80
2022-10-01T03:28:50.338Z,0.80
2022-10-01T03:29:53.326Z,0.90
2022-10-01T03:31:05.180Z,0.80
2022-10-01T03:32:08.143Z,0.80
2022-10-01T03:33:11.400Z,0.80
2022-10-01T03:34:14.389Z,0.80
2022-10-01T03:35:17.080Z,0.70
2022-10-01T03:36:19.989Z,0.82
2022-10-01T03:37:21.929Z,0.90
2022-10-01T03:38:24.988Z,0.80
2022-10-01T03:39:26.930Z,0.90
2022-10-01T03:40:30.407Z,0.90
2022-10-01T03:41:32.576Z,1.00
2022-10-01T03:42:35.727Z,1.00
2022-10-01T03:43:37.653Z,0.90
2022-10-01T03:44:40.549Z,0.90
2022-10-01T03:45:42.588Z,0.90
2022-10-01T03:46:45.782Z,0.90
2022-10-01T03:47:51.900Z,0.90
2022-10-01T03:48:57.290Z,0.95
2022-10-01T03:49:59.335Z,1.00
2022-10-01T03:51:02.382Z,0.90
2022-10-01T03:52:06.408Z,0.82
2022-10-01T03:53:09.365Z,0.80
2022-10-01T03:54:11.342Z,0.80
2022-10-01T03:55:14.395Z,0.80
2022-10-01T03:56:16.960Z,0.80
2022-10-01T03:57:19.926Z,0.90
2022-10-01T03:58:23.318Z,0.80
2022-10-01T03:59:27.228Z,0.80
2022-10-01T04:00:29.197Z,0.80
2022-10-01T04:01:32.571Z,0.80
2022-10-01T04:02:34.885Z,0.90
2022-10-01T04:03:37.932Z,0.80
2022-10-01T04:04:41.221Z,0.90
2022-10-01T04:05:45.839Z,0.80
2022-10-01T04:06:47.777Z,0.82
2022-10-01T04:07:50.709Z,0.80
2022-10-01T04:08:52.692Z,0.80
2022-10-01T04:09:55.720Z,0.80
2022-10-01T04:10:57.714Z,0.90
2022-10-01T04:12:00.849Z,0.80
2022-10-01T04:13:03.316Z,0.90
2022-10-01T04:14:06.407Z,0.90
2022-10-01T04:15:09.277Z,0.90
2022-10-01T04:16:12.558Z,0.98
2022-10-01T04:17:14.719Z,0.90
2022-10-01T04:18:20.698Z,0.90
2022-10-01T04:19:23.633Z,0.90
2022-10-01T04:20:27.038Z,0.80
2022-10-01T04:21:30.330Z,0.82
2022-10-01T04:22:36.590Z,0.88
2022-10-01T04:23:39.965Z,0.90
2022-10-01T04:24:41.936Z,0.90
2022-10-01T04:25:45.094Z,0.90
2022-10-01T04:26:47.120Z,0.90
2022-10-01T04:27:59.125Z,1.00
2022-10-01T04:29:01.253Z,0.90
2022-10-01T04:30:04.626Z,0.80
2022-10-01T04:31:25.301Z,1.00
2022-10-01T04:32:28.291Z,0.80
2022-10-01T04:33:32.354Z,0.90
2022-10-01T04:34:53.685Z,0.80
2022-10-01T04:35:56.968Z,0.80
2022-10-01T04:36:59.883Z,0.70
2022-10-01T04:38:04.721Z,0.80
2022-10-01T04:39:08.238Z,0.90
2022-10-01T04:40:10.929Z,0.80
2022-10-01T04:41:14.809Z,0.80
2022-10-01T04:42:16.824Z,0.82
2022-10-01T04:43:19.676Z,0.82
2022-10-01T04:44:21.591Z,0.82
2022-10-01T04:45:24.903Z,0.90
2022-10-01T04:46:27.147Z,0.80
2022-10-01T04:47:33.529Z,0.80
2022-10-01T04:48:37.728Z,0.80
2022-10-01T04:49:40.873Z,0.77
2022-10-01T04:50:43.190Z,0.90
2022-10-01T04:51:47.590Z,0.80
2022-10-01T04:52:49.938Z,0.80
2022-10-01T04:53:52.892Z,0.80
2022-10-01T04:54:54.992Z,0.80
2022-10-01T04:55:57.952Z,0.90
2022-10-01T04:56:59.839Z,0.90
2022-10-01T04:58:02.880Z,1.00
2022-10-01T04:59:04.845Z,0.80
2022-10-01T05:00:10.097Z,0.93
2022-10-01T05:01:12.146Z,0.85
2022-10-01T05:02:15.210Z,0.80
2022-10-01T05:03:17.565Z,0.82
2022-10-01T05:04:20.574Z,0.90
2022-10-01T05:05:24.190Z,0.82
2022-10-01T05:06:27.270Z,0.90
2022-10-01T05:07:31.021Z,0.98
2022-10-01T05:08:33.956Z,0.93
2022-10-01T05:09:35.900Z,0.90
2022-10-01T05:10:38.987Z,0.90
2022-10-01T05:11:40.980Z,0.90
2022-10-01T05:12:44.262Z,0.80
2022-10-01T05:13:46.196Z,0.90
2022-10-01T05:14:49.217Z,0.90
2022-10-01T05:15:52.255Z,0.90
2022-10-01T05:16:55.340Z,0.90
2022-10-01T05:17:57.433Z,0.90
2022-10-01T05:19:00.308Z,0.90
2022-10-01T05:20:04.086Z,0.88
2022-10-01T05:21:07.829Z,1.00
2022-10-01T05:22:09.742Z,0.90
2022-10-01T05:23:14.134Z,1.00
2022-10-01T05:24:16.194Z,0.98
2022-10-01T05:25:20.097Z,0.90
2022-10-01T05:26:23.227Z,1.02
2022-10-01T05:27:25.221Z,0.90
2022-10-01T05:28:28.504Z,0.90
2022-10-01T05:29:30.852Z,1.00
2022-10-01T05:30:34.562Z,0.80
2022-10-01T05:31:36.832Z,0.80
2022-10-01T05:32:40.309Z,1.00
2022-10-01T05:33:42.545Z,0.98
2022-10-01T05:34:47.918Z,1.00
2022-10-01T05:35:53.585Z,0.82
2022-10-01T05:36:56.600Z,1.00
2022-10-01T05:38:00.292Z,1.00
2022-10-01T05:39:04.814Z,1.08
2022-10-01T05:40:07.412Z,0.90
2022-10-01T05:41:10.599Z,0.90
2022-10-01T05:42:12.886Z,0.90
2022-10-01T05:43:16.453Z,1.02
2022-10-01T05:44:18.541Z,0.90
2022-10-01T05:45:23.053Z,1.00
2022-10-01T05:46:25.019Z,1.00
2022-10-01T05:47:27.884Z,1.00
2022-10-01T05:48:31.606Z,1.00
2022-10-01T05:49:34.927Z,1.00
2022-10-01T05:50:40.191Z,1.00
2022-10-01T05:51:43.154Z,1.00
2022-10-01T05:52:52.966Z,1.08
2022-10-01T05:53:59.076Z,1.00
2022-10-01T05:55:02.445Z,1.05
2022-10-01T05:56:05.877Z,1.00
2022-10-01T05:57:08.825Z,1.00
2022-10-01T05:58:13.616Z,1.08
2022-10-01T05:59:15.648Z,1.20
2022-10-01T06:00:19.694Z,1.20
2022-10-01T06:01:21.666Z,1.13
2022-10-01T06:02:25.113Z,1.10
2022-10-01T06:03:28.939Z,1.05
2022-10-01T06:04:38.937Z,1.13
2022-10-01T06:05:44.603Z,1.10
2022-10-01T06:06:47.702Z,1.20
2022-10-01T06:07:50.520Z,1.10
2022-10-01T06:08:53.848Z,1.10
2022-10-01T06:09:55.842Z,1.20
2022-10-01T06:11:03.924Z,1.15
2022-10-01T06:12:08.607Z,1.20
2022-10-01T06:13:18.032Z,1.20
2022-10-01T06:14:20.276Z,0.90
2022-10-01T06:15:26.807Z,1.10
2022-10-01T06:16:29.326Z,1.00
2022-10-01T06:17:33.894Z,1.00
2022-10-01T06:18:36.694Z,0.93
2022-10-01T06:19:39.803Z,1.00
2022-10-01T06:20:41.908Z,1.10
2022-10-01T06:21:45.026Z,1.02
2022-10-01T06:22:54.378Z,1.00
2022-10-01T06:23:57.679Z,1.10
2022-10-01T06:24:59.862Z,1.20
2022-10-01T06:26:06.838Z,1.20
2022-10-01T06:27:10.523Z,1.23
2022-10-01T06:28:14.490Z,1.00
2022-10-01T06:29:17.771Z,1.00
2022-10-01T06:30:20.041Z,1.00
2022-10-01T06:31:24.177Z,0.80
2022-10-01T06:32:26.572Z,0.90
2022-10-01T06:33:29.876Z,0.98
2022-10-01T06:34:31.695Z,0.95
2022-10-01T06:35:35.737Z,1.00
2022-10-01T06:36:37.606Z,0.93
2022-10-01T06:37:40.464Z,1.00
2022-10-01T06:38:43.089Z,0.98
2022-10-01T06:39:46.111Z,0.90
2022-10-01T06:40:52.155Z,0.80
2022-10-01T06:41:56.370Z,0.90
2022-10-01T06:42:58.966Z,0.80
2022-10-01T06:44:02.342Z,0.80
2022-10-01T06:45:04.963Z,0.73
2022-10-01T06:46:07.882Z,0.80
2022-10-01T06:47:10.782Z,0.80
2022-10-01T06:48:14.878Z,0.73
2022-10-01T06:49:20.478Z,0.80
2022-10-01T06:50:23.303Z,0.80
2022-10-01T06:51:40.000Z,0.70
2022-10-01T06:52:51.520Z,0.80
2022-10-01T06:53:53.352Z,0.70
2022-10-01T06:54:56.377Z,0.80
2022-10-01T06:56:04.424Z,0.70
2022-10-01T06:57:07.662Z,0.80
2022-10-01T06:58:14.979Z,0.85
2022-10-01T06:59:16.826Z,0.80
2022-10-01T07:00:19.771Z,0.80
2022-10-01T07:01:22.660Z,0.80
2022-10-01T07:02:28.829Z,0.80
2022-10-01T07:03:32.881Z,0.75
2022-10-01T07:04:34.790Z,0.70
2022-10-01T07:05:37.743Z,0.70
2022-10-01T07:06:39.603Z,0.80
2022-10-01T07:07:42.452Z,0.80
2022-10-01T07:08:45.394Z,0.80
2022-10-01T07:09:47.267Z,0.70
2022-10-01T07:10:50.103Z,0.80
2022-10-01T07:11:53.058Z,0.70
2022-10-01T07:12:57.216Z,0.60
2022-10-01T07:14:01.388Z,0.70
2022-10-01T07:15:05.709Z,0.60
2022-10-01T07:16:07.599Z,0.60
2022-10-01T07:17:10.478Z,0.60
2022-10-01T07:18:12.960Z,0.60
2022-10-01T07:19:15.784Z,0.70
2022-10-01T07:20:19.211Z,0.70
2022-10-01T07:21:22.068Z,0.60
2022-10-01T07:22:25.130Z,0.60
2022-10-01T07:23:27.949Z,0.60
2022-10-01T07:24:32.459Z,0.70
2022-10-01T07:25:35.386Z,0.60
2022-10-01T07:26:37.213Z,0.70
2022-10-01T07:27:40.509Z,0.60
2022-10-01T07:28:44.906Z,0.60
2022-10-01T07:29:47.848Z,0.55
2022-10-01T07:30:59.385Z,0.60
2022-10-01T07:32:04.111Z,0.60
2022-10-01T07:33:07.531Z,0.60
2022-10-01T07:34:09.637Z,0.60
2022-10-01T07:35:12.543Z,0.68
2022-10-01T07:36:14.487Z,0.60
2022-10-01T07:37:17.574Z,0.60
2022-10-01T07:38:19.607Z,0.70
2022-10-01T07:39:22.662Z,0.60
2022-10-01T07:40:24.580Z,0.60
2022-10-01T07:41:27.422Z,0.60
2022-10-01T07:42:29.365Z,0.60
2022-10-01T07:43:34.585Z,0.60
2022-10-01T07:44:38.107Z,0.50
2022-10-01T07:45:41.135Z,0.50
2022-10-01T07:46:43.139Z,0.50
2022-10-01T07:47:53.233Z,0.50
2022-10-01T07:48:55.269Z,0.70
2022-10-01T07:49:58.118Z,0.60
2022-10-01T07:51:00.009Z,0.50
2022-10-01T07:52:03.171Z,0.57
2022-10-01T07:53:05.066Z,0.50
2022-10-01T07:54:08.090Z,0.40
2022-10-01T07:56:55.848Z,0.50
2022-10-01T07:58:01.483Z,0.50
2022-10-01T07:59:03.906Z,0.47
2022-10-01T08:00:08.549Z,0.50
2022-10-01T08:01:13.935Z,0.50
2022-10-01T08:02:17.782Z,0.50
2022-10-01T08:03:19.651Z,0.50
2022-10-01T08:04:40.362Z,0.50
2022-10-01T08:05:43.482Z,0.50
2022-10-01T08:06:48.929Z,0.55
2022-10-01T08:07:52.111Z,0.50
2022-10-01T08:08:53.997Z,0.40
2022-10-01T08:09:57.697Z,0.60
2022-10-01T08:11:04.589Z,0.50
2022-10-01T08:12:06.471Z,0.50
2022-10-01T08:13:14.628Z,0.50
2022-10-01T08:14:18.530Z,0.50
2022-10-01T08:15:21.413Z,0.40
2022-10-01T08:16:23.366Z,0.50
2022-10-01T08:17:29.492Z,0.50
2022-10-01T08:18:32.998Z,0.30
2022-10-01T08:19:36.281Z,0.50
2022-10-01T08:20:40.406Z,0.40
2022-10-01T08:21:42.505Z,0.40
2022-10-01T08:22:45.366Z,0.30
2022-10-01T08:23:47.214Z,0.40
2022-10-01T08:24:50.083Z,0.35
2022-10-01T08:25:51.981Z,0.40
2022-10-01T08:26:57.644Z,0.40
2022-10-01T08:28:00.251Z,0.47
2022-10-01T08:29:03.152Z,0.40
2022-10-01T08:30:06.275Z,0.40
2022-10-01T08:31:10.095Z,0.40
2022-10-01T08:32:12.036Z,0.40
2022-10-01T08:33:15.299Z,0.40
2022-10-01T08:34:17.147Z,0.43
2022-10-01T08:35:20.054Z,0.50
2022-10-01T08:36:22.131Z,0.45
2022-10-01T08:37:27.077Z,0.50
2022-10-01T08:38:28.968Z,0.40
2022-10-01T08:39:31.797Z,0.50
2022-10-01T08:40:38.125Z,0.60
2022-10-01T08:41:51.481Z,0.50
2022-10-01T08:43:00.556Z,0.50
2022-10-01T08:44:06.129Z,0.50
2022-10-01T08:45:13.430Z,0.50
2022-10-01T08:46:19.864Z,0.50
2022-10-01T08:47:28.615Z,0.50
2022-10-01T08:48:40.911Z,0.50
2022-10-01T08:49:48.435Z,0.50
2022-10-01T08:50:55.138Z,0.50
2022-10-01T08:52:03.504Z,0.50
2022-10-01T08:53:12.313Z,0.60
2022-10-01T08:54:28.442Z,0.40
2022-10-01T08:55:36.542Z,0.40
2022-10-01T08:56:44.230Z,0.40
2022-10-01T08:57:52.835Z,0.40
2022-10-01T08:58:59.029Z,0.30
2022-10-01T09:00:06.647Z,0.40
2022-10-01T09:01:10.429Z,0.30
2022-10-01T09:02:20.747Z,0.40
2022-10-01T09:04:25.486Z,0.50
2022-10-01T09:05:35.479Z,0.50
2022-10-01T09:06:38.758Z,0.52
2022-10-01T09:07:52.412Z,0.40
2022-10-01T09:09:06.476Z,0.40
2022-10-01T09:10:21.645Z,0.60
2022-10-01T09:11:35.895Z,0.50
2022-10-01T09:12:49.422Z,0.50
2022-10-01T09:14:07.979Z,0.50
2022-10-01T09:15:22.413Z,0.50
2022-10-01T09:16:30.482Z,0.50
2022-10-01T09:17:50.536Z,0.50
2022-10-01T09:19:08.093Z,0.60
2022-10-01T09:20:17.819Z,0.50
2022-10-01T09:21:26.265Z,0.45
2022-10-01T09:22:40.294Z,0.38
2022-10-01T09:23:54.892Z,0.30
2022-10-01T09:25:04.737Z,0.40
2022-10-01T09:26:13.297Z,0.40
2022-10-01T09:27:17.325Z,0.40
2022-10-01T09:28:23.392Z,0.40
2022-10-01T09:29:37.163Z,0.43
2022-10-01T09:30:42.796Z,0.40
2022-10-01T09:31:49.691Z,0.50
2022-10-01T09:32:56.292Z,0.50
2022-10-01T09:34:04.842Z,0.60
2022-10-01T09:35:20.263Z,0.50
2022-10-01T09:36:28.302Z,0.40
2022-10-01T09:37:39.594Z,0.45
2022-10-01T09:38:44.774Z,0.40
2022-10-01T09:40:06.572Z,0.47
2022-10-01T09:41:11.598Z,0.50
2022-10-01T09:42:13.395Z,0.50
2022-10-01T09:43:23.015Z,0.50
2022-10-01T09:44:29.830Z,0.50
2022-10-01T09:45:31.931Z,0.50
2022-10-01T09:46:35.588Z,0.40
2022-10-01T09:47:37.592Z,0.40
2022-10-01T09:48:46.558Z,0.50
2022-10-01T09:49:49.741Z,0.50
2022-10-01T09:50:59.074Z,0.50
2022-10-01T09:52:07.176Z,0.50
2022-10-01T09:53:16.564Z,0.50
2022-10-01T09:54:35.353Z,0.50
2022-10-01T09:55:41.709Z,0.50
2022-10-01T09:56:49.442Z,0.40
2022-10-01T09:57:57.974Z,0.50
2022-10-01T09:59:05.249Z,0.50
2022-10-01T10:00:11.892Z,0.47
2022-10-01T10:01:22.806Z,0.50
2022-10-01T10:02:31.459Z,0.50
2022-10-01T10:03:34.639Z,0.50
2022-10-01T10:04:36.604Z,0.40
2022-10-01T10:05:46.539Z,0.50
2022-10-01T10:06:48.407Z,0.40
2022-10-01T10:07:54.155Z,0.50
2022-10-01T10:08:58.290Z,0.50
2022-10-01T10:10:10.182Z,0.50
2022-10-01T10:11:21.511Z,0.40
2022-10-01T10:12:29.344Z,0.40
2022-10-01T10:13:34.995Z,0.32
2022-10-01T10:14:40.760Z,0.40
2022-10-01T10:15:52.599Z,0.40
2022-10-01T10:16:56.641Z,0.40
2022-10-01T10:18:07.400Z,0.43
2022-10-01T10:19:17.786Z,0.40
2022-10-01T10:20:29.685Z,0.40
2022-10-01T10:21:35.069Z,0.40
2022-10-01T10:22:37.042Z,0.40
2022-10-01T10:23:48.188Z,0.50
2022-10-01T10:24:50.599Z,0.40
2022-10-01T10:26:00.715Z,0.40
2022-10-01T10:27:07.198Z,0.50
2022-10-01T10:28:19.410Z,0.45
2022-10-01T10:29:30.412Z,0.40
2022-10-01T10:30:32.401Z,0.40
2022-10-01T10:31:42.290Z,0.38
2022-10-01T10:32:47.120Z,0.40
2022-10-01T10:33:53.386Z,0.50
2022-10-01T10:35:02.938Z,0.45
2022-10-01T10:36:09.463Z,0.40
2022-10-01T10:37:15.828Z,0.40
2022-10-01T10:38:18.480Z,0.40
2022-10-01T10:39:25.919Z,0.40
2022-10-01T10:40:32.095Z,0.45
2022-10-01T10:41:36.106Z,0.40
2022-10-01T10:42:38.846Z,0.43
2022-10-01T10:43:44.124Z,0.50
2022-10-01T10:44:49.303Z,0.40
2022-10-01T10:45:56.037Z,0.40
2022-10-01T10:47:03.335Z,0.40
2022-10-01T10:48:13.101Z,0.50
2022-10-01T10:49:20.849Z,0.50
2022-10-01T10:50:31.211Z,0.47
2022-10-01T10:51:53.871Z,0.50
2022-10-01T10:52:56.538Z,0.52
2022-10-01T10:54:01.310Z,0.40
2022-10-01T10:55:21.819Z,0.40
2022-10-01T10:56:25.328Z,0.40
2022-10-01T10:57:30.009Z,0.40
2022-10-01T10:58:33.366Z,0.40
2022-10-01T10:59:36.246Z,0.40
2022-10-01T11:00:46.138Z,0.40
2022-10-01T11:01:50.765Z,0.40
2022-10-01T11:02:58.127Z,0.50
2022-10-01T11:04:01.463Z,0.45
2022-10-01T11:05:15.101Z,0.40
2022-10-01T11:06:18.617Z,0.40
2022-10-01T11:07:24.306Z,0.40
2022-10-01T11:08:28.836Z,0.50
2022-10-01T11:09:43.478Z,0.40
2022-10-01T11:10:56.726Z,0.40
2022-10-01T11:12:12.211Z,0.40
2022-10-01T11:13:34.805Z,0.30
2022-10-01T11:14:51.382Z,0.40
2022-10-01T11:16:09.845Z,0.40
2022-10-01T11:17:24.710Z,0.50
2022-10-01T11:18:55.938Z,0.40
2022-10-01T11:20:11.519Z,0.50
2022-10-01T11:21:30.157Z,0.40
2022-10-01T11:22:49.092Z,0.40
2022-10-01T11:24:21.181Z,0.50
2022-10-01T11:25:36.813Z,0.40
2022-10-01T11:26:50.628Z,0.30
2022-10-01T11:28:05.730Z,0.40
2022-10-01T11:29:22.849Z,0.40
2022-10-01T11:30:30.336Z,0.40
2022-10-01T11:31:38.158Z,0.40
2022-10-01T11:32:46.487Z,0.40
2022-10-01T11:34:02.449Z,0.40
2022-10-01T11:35:27.004Z,0.50
2022-10-01T11:36:36.587Z,0.40
2022-10-01T11:37:55.159Z,0.40
2022-10-01T11:39:01.312Z,0.40
2022-10-01T11:40:13.208Z,0.40
2022-10-01T11:41:30.161Z,0.30
2022-10-01T11:42:36.213Z,0.40
2022-10-01T11:43:44.258Z,0.40
2022-10-01T11:44:52.154Z,0.40
2022-10-01T11:45:57.179Z,0.47
2022-10-01T11:47:04.072Z,0.40
2022-10-01T11:48:13.584Z,0.50
2022-10-01T11:49:34.613Z,0.50
2022-10-01T11:50:41.843Z,0.40
2022-10-01T11:51:49.778Z,0.40
2022-10-01T11:52:59.418Z,0.40
2022-10-01T11:54:07.054Z,0.40
2022-10-01T11:55:39.092Z,0.40
2022-10-01T11:57:04.542Z,0.30
2022-10-01T11:58:32.955Z,0.40
2022-10-01T11:59:42.303Z,0.40
2022-10-01T12:00:55.996Z,0.40
2022-10-01T12:02:08.218Z,0.40
2022-10-01T12:03:19.876Z,0.40
2022-10-01T12:04:32.840Z,0.40
2022-10-01T12:05:35.164Z,0.40
2022-10-01T12:06:44.433Z,0.30
2022-10-01T12:07:51.300Z,0.40
2022-10-01T12:09:00.299Z,0.40
2022-10-01T12:10:17.255Z,0.40
2022-10-01T12:11:24.789Z,0.40
2022-10-01T12:12:31.352Z,0.40
2022-10-01T12:13:38.459Z,0.40
2022-10-01T12:14:45.959Z,0.40
2022-10-01T12:15:54.441Z,0.40
2022-10-01T12:17:01.138Z,0.50
2022-10-01T12:18:12.401Z,0.50
2022-10-01T12:19:21.580Z,0.40
2022-10-01T12:20:31.459Z,0.40
2022-10-01T12:21:39.067Z,0.40
2022-10-01T12:22:42.123Z,0.40
2022-10-01T12:23:51.975Z,0.40
2022-10-01T12:24:54.156Z,0.40
2022-10-01T12:26:06.923Z,0.32
2022-10-01T12:27:37.036Z,0.45
2022-10-01T12:28:50.653Z,0.40
2022-10-01T12:30:03.379Z,0.40
2022-10-01T12:31:12.552Z,0.40
2022-10-01T12:32:25.534Z,0.40
2022-10-01T12:33:52.420Z,0.40
2022-10-01T12:35:06.851Z,0.40
2022-10-01T12:36:21.436Z,0.40
2022-10-01T12:37:38.076Z,0.40
2022-10-01T12:38:59.023Z,0.40
2022-10-01T12:40:14.016Z,0.40
2022-10-01T12:41:31.058Z,0.40
2022-10-01T12:42:50.137Z,0.40
2022-10-01T12:44:19.189Z,0.40
2022-10-01T12:45:31.326Z,0.40
2022-10-01T12:46:42.195Z,0.40
2022-10-01T12:47:51.740Z,0.40
2022-10-01T12:49:03.946Z,0.40
2022-10-01T12:50:21.009Z,0.40
2022-10-01T12:51:38.579Z,0.50
2022-10-01T12:52:51.047Z,0.40
2022-10-01T12:54:04.739Z,0.40
2022-10-01T12:55:30.780Z,0.40
2022-10-01T12:56:37.059Z,0.45
2022-10-01T12:57:50.429Z,0.40
2022-10-01T12:59:14.612Z,0.40
2022-10-01T13:00:19.433Z,0.40
2022-10-01T13:01:39.631Z,0.40
2022-10-01T13:03:10.738Z,0.40
2022-10-01T13:04:32.797Z,0.40
2022-10-01T13:05:41.293Z,0.40
2022-10-01T13:06:56.499Z,0.50
2022-10-01T13:08:12.693Z,0.40
2022-10-01T13:09:25.069Z,0.60
2022-10-01T13:10:44.514Z,0.60
2022-10-01T13:12:01.134Z,0.60
2022-10-01T13:13:08.576Z,0.50
2022-10-01T13:14:13.850Z,0.50
2022-10-01T13:15:20.628Z,0.50
2022-10-01T13:16:32.536Z,0.50
2022-10-01T13:17:42.262Z,0.50
2022-10-01T13:18:56.660Z,0.60
2022-10-01T13:20:09.056Z,0.50
2022-10-01T13:21:19.264Z,0.50
2022-10-01T13:23:36.015Z,0.50
2022-10-01T13:24:42.600Z,0.50
2022-10-01T13:25:53.457Z,0.50
2022-10-01T13:27:01.691Z,0.50
2022-10-01T13:28:13.020Z,0.50
2022-10-01T13:29:28.129Z,0.50
2022-10-01T13:30:42.476Z,0.60
2022-10-01T13:31:56.776Z,0.50
2022-10-01T13:33:01.880Z,0.50
2022-10-01T13:34:24.410Z,0.57
2022-10-01T13:35:34.377Z,0.52
2022-10-01T13:36:37.971Z,0.50
2022-10-01T13:37:43.769Z,0.50
2022-10-01T13:38:47.512Z,0.50
2022-10-01T13:39:50.848Z,0.50
2022-10-01T13:40:58.062Z,0.50
2022-10-01T13:42:01.151Z,0.50
2022-10-01T13:43:09.515Z,0.50
2022-10-01T13:44:22.992Z,0.45
2022-10-01T13:45:34.137Z,0.40
2022-10-01T13:46:50.633Z,0.40
2022-10-01T13:47:52.749Z,0.50
2022-10-01T13:48:57.196Z,0.50
2022-10-01T13:50:03.938Z,0.40
2022-10-01T13:51:10.621Z,0.50
2022-10-01T13:52:20.062Z,0.50
2022-10-01T13:53:26.999Z,0.50
2022-10-01T13:54:36.288Z,0.47
2022-10-01T13:55:42.493Z,0.52
2022-10-01T13:56:45.393Z,0.50
2022-10-01T13:57:47.300Z,0.50
2022-10-01T13:58:53.119Z,0.50
2022-10-01T13:59:59.614Z,0.50
2022-10-01T14:01:05.030Z,0.50
2022-10-01T14:02:32.001Z,0.50
2022-10-01T14:03:43.998Z,0.52
2022-10-01T14:04:48.097Z,0.60
2022-10-01T14:05:56.857Z,0.50
2022-10-01T14:07:04.120Z,0.50
2022-10-01T14:08:16.654Z,0.50
2022-10-01T14:09:25.594Z,0.50
2022-10-01T14:10:57.519Z,0.40
2022-10-01T14:12:22.543Z,0.50
2022-10-01T14:13:53.093Z,0.50
2022-10-01T14:15:15.612Z,0.50
2022-10-01T14:16:19.792Z,0.50
2022-10-01T14:17:24.879Z,0.50
2022-10-01T14:18:31.657Z,0.52
2022-10-01T14:19:33.647Z,0.60
2022-10-01T14:20:53.253Z,0.60
2022-10-01T14:22:15.479Z,0.50
2022-10-01T14:23:26.158Z,0.50
2022-10-01T14:24:40.976Z,0.50
2022-10-01T14:25:53.843Z,0.50
2022-10-01T14:27:03.678Z,0.50
2022-10-01T14:28:27.199Z,0.50
2022-10-01T14:29:42.876Z,0.50
2022-10-01T14:30:53.499Z,0.50
2022-10-01T14:32:04.307Z,0.50
2022-10-01T14:33:20.722Z,0.50
2022-10-01T14:34:38.424Z,0.50
2022-10-01T14:35:49.723Z,0.50
2022-10-01T14:36:54.262Z,0.50
2022-10-01T14:38:02.310Z,0.40
2022-10-01T14:39:13.189Z,0.45
2022-10-01T14:40:21.283Z,0.40
2022-10-01T14:41:24.391Z,0.40
2022-10-01T14:42:27.219Z,0.40
2022-10-01T14:43:30.574Z,0.50
2022-10-01T14:44:39.919Z,0.40
2022-10-01T14:45:50.455Z,0.40
2022-10-01T14:46:54.968Z,0.40
2022-10-01T14:48:01.385Z,0.40
2022-10-01T14:49:04.202Z,0.50
2022-10-01T14:50:11.312Z,0.50
2022-10-01T14:51:24.826Z,0.50
2022-10-01T14:52:29.879Z,0.50
2022-10-01T14:53:35.211Z,0.50
2022-10-01T14:54:44.352Z,0.50
2022-10-01T14:55:50.896Z,0.50